Time;durP1;ratioP1;P1;durP2;ratioP2;P2;SDS_P1;SDS_P2;PMS_P1;PMS_P2;Temp;Humidity;BMP_temperature;BMP_pressure;BME280_temperature;BME280_humidity;BME280_pressure;Samples;Min_cycle;Max_cycle;Signal;HPM_P1;HPM_P2
2022/11/07 00:01:44;;;;;;;;;;;19.70;41.80;;;;;;4998818;28;19975;-63
2022/11/07 00:04:12;;;;;;;;;;;19.70;41.80;;;;;;4980787;28;19954;-63
2022/11/07 00:06:39;;;;;;;;;;;19.70;41.80;;;;;;4992141;28;19997;-63
2022/11/07 00:09:05;;;;;;;;;;;19.70;41.80;;;;;;4977053;28;20020;-63
2022/11/07 00:11:32;;;;;;;;;;;19.70;41.80;;;;;;5002032;28;19980;-63
2022/11/07 00:13:59;;;;;;;;;;;19.70;41.80;;;;;;5008883;28;19925;-63
2022/11/07 00:16:27;;;;;;;;;;;19.70;41.80;;;;;;4990590;28;19925;-63
2022/11/07 00:18:54;;;;;;;;;;;19.70;41.80;;;;;;5000007;28;19988;-63
2022/11/07 00:21:22;;;;;;;;;;;19.70;41.80;;;;;;5000817;28;19929;-63
2022/11/07 00:23:49;;;;;;;;;;;19.70;41.80;;;;;;5016208;28;19956;-63
2022/11/07 00:26:16;;;;;;;;;;;19.70;41.80;;;;;;4977534;28;19940;-63
2022/11/07 00:28:42;;;;;;;;;;;19.70;41.80;;;;;;4994053;28;20239;-63
2022/11/07 00:31:11;;;;;;;;;;;19.70;41.80;;;;;;4998744;28;19925;-63
2022/11/07 00:33:38;;;;;;;;;;;19.60;41.80;;;;;;4976747;28;19933;-63
2022/11/07 00:36:04;;;;;;;;;;;19.70;41.80;;;;;;4983982;28;20338;-63
2022/11/07 00:38:32;;;;;;;;;;;19.70;41.80;;;;;;4995616;28;19975;-63
2022/11/07 00:40:59;;;;;;;;;;;19.60;41.80;;;;;;4992976;28;20017;-63
2022/11/07 00:43:26;;;;;;;;;;;19.70;41.80;;;;;;4993920;28;19958;-63
2022/11/07 00:45:53;;;;;;;;;;;19.70;41.80;;;;;;4981241;28;19926;-63
2022/11/07 00:48:20;;;;;;;;;;;19.60;41.80;;;;;;4991703;28;19926;-63
2022/11/07 00:50:47;;;;;;;;;;;19.70;41.90;;;;;;4993783;28;19926;-63
2022/11/07 00:53:13;;;;;;;;;;;19.70;41.90;;;;;;4994784;28;19950;-63
2022/11/07 00:55:41;;;;;;;;;;;19.60;41.80;;;;;;4978785;28;19926;-63
2022/11/07 00:58:08;;;;;;;;;;;19.70;41.90;;;;;;5014063;28;19975;-63
2022/11/07 01:00:36;;;;;;;;;;;19.70;41.90;;;;;;4986540;28;19933;-63
2022/11/07 01:05:54;;;;;;;;;;;19.70;41.90;;;;;;4978133;28;20372;-63
2022/11/07 01:08:21;;;;;;;;;;;19.70;41.90;;;;;;4996657;28;19929;-63
2022/11/07 01:10:49;;;;;;;;;;;19.70;41.90;;;;;;4994303;28;20409;-62
2022/11/07 01:13:16;;;;;;;;;;;19.60;41.80;;;;;;4979371;28;20025;-62
2022/11/07 01:15:42;;;;;;;;;;;19.70;41.90;;;;;;4962017;28;19930;-63
2022/11/07 01:18:09;;;;;;;;;;;19.70;41.90;;;;;;4973238;28;20447;-63
2022/11/07 01:20:36;;;;;;;;;;;19.70;41.90;;;;;;4975331;28;20422;-65
2022/11/07 01:23:02;;;;;;;;;;;19.60;41.90;;;;;;4975757;28;20043;-63
2022/11/07 01:25:29;;;;;;;;;;;19.60;41.90;;;;;;4991599;28;19933;-63
2022/11/07 01:27:57;;;;;;;;;;;19.70;41.90;;;;;;4991474;28;19926;-63
2022/11/07 01:30:24;;;;;;;;;;;19.70;41.90;;;;;;4980847;28;19934;-63
2022/11/07 01:32:50;;;;;;;;;;;19.70;41.90;;;;;;4974967;28;20032;-63
2022/11/07 01:35:18;;;;;;;;;;;19.70;41.90;;;;;;4962503;28;19930;-63
2022/11/07 01:37:44;;;;;;;;;;;19.70;41.90;;;;;;4990293;28;20434;-63
2022/11/07 01:40:11;;;;;;;;;;;19.70;41.90;;;;;;4990230;28;19926;-63
2022/11/07 01:42:38;;;;;;;;;;;19.70;41.90;;;;;;5004188;28;20016;-63
2022/11/07 01:45:07;;;;;;;;;;;19.70;42.00;;;;;;4989307;28;20016;-63
2022/11/07 01:47:34;;;;;;;;;;;19.70;42.00;;;;;;4994708;28;19925;-63
2022/11/07 01:50:01;;;;;;;;;;;19.60;41.90;;;;;;4979958;28;20026;-63
2022/11/07 01:52:28;;;;;;;;;;;19.70;41.90;;;;;;5001208;28;19926;-63
2022/11/07 01:54:56;;;;;;;;;;;19.70;42.00;;;;;;4979538;28;19932;-63
2022/11/07 01:57:24;;;;;;;;;;;19.70;42.00;;;;;;4981979;28;20388;-63
2022/11/07 01:59:51;;;;;;;;;;;19.70;41.90;;;;;;4985696;28;19969;-63
2022/11/07 02:02:19;;;;;;;;;;;19.70;41.90;;;;;;4987908;28;19926;-63
2022/11/07 02:04:46;;;;;;;;;;;19.70;41.90;;;;;;4965720;28;20376;-63
2022/11/07 02:07:13;;;;;;;;;;;19.60;41.90;;;;;;4989254;28;19933;-63
2022/11/07 02:09:39;;;;;;;;;;;19.70;42.00;;;;;;4956626;28;20021;-63
2022/11/07 02:12:09;;;;;;;;;;;19.70;42.00;;;;;;4981209;28;19925;-63
2022/11/07 02:14:36;;;;;;;;;;;19.70;42.00;;;;;;4992729;28;20626;-63
2022/11/07 02:17:02;;;;;;;;;;;19.70;42.00;;;;;;4997918;28;19965;-63
2022/11/07 02:19:32;;;;;;;;;;;19.70;42.00;;;;;;4956484;28;19926;-63
2022/11/07 02:22:01;;;;;;;;;;;19.60;41.90;;;;;;4989957;28;20025;-63
2022/11/07 02:24:30;;;;;;;;;;;19.60;41.90;;;;;;4974603;28;19988;-63
2022/11/07 02:26:56;;;;;;;;;;;19.70;42.00;;;;;;4998848;28;19964;-63
2022/11/07 02:29:23;;;;;;;;;;;19.60;41.90;;;;;;5013195;28;19925;-63
2022/11/07 02:31:59;;;;;;;;;;;19.60;41.90;;;;;;4994656;28;20025;-63
2022/11/07 02:34:26;;;;;;;;;;;19.60;41.90;;;;;;4991326;28;19981;-63
2022/11/07 02:36:55;;;;;;;;;;;19.60;42.00;;;;;;4993387;28;19930;-63
2022/11/07 02:39:22;;;;;;;;;;;19.60;42.00;;;;;;4975878;28;19926;-63
2022/11/07 02:42:01;;;;;;;;;;;19.60;42.00;;;;;;4981122;28;20024;-63
2022/11/07 02:44:28;;;;;;;;;;;19.70;42.10;;;;;;4991341;28;19926;-63
2022/11/07 02:46:55;;;;;;;;;;;19.70;42.10;;;;;;4973741;28;19976;-63
2022/11/07 02:49:21;;;;;;;;;;;19.60;42.00;;;;;;4983965;28;20012;-63
2022/11/07 02:51:49;;;;;;;;;;;19.70;42.10;;;;;;4974271;28;19933;-63
2022/11/07 02:54:16;;;;;;;;;;;19.70;42.10;;;;;;4956293;28;19972;-63
2022/11/07 02:56:42;;;;;;;;;;;19.60;42.00;;;;;;4966262;28;20008;-63
2022/11/07 02:59:10;;;;;;;;;;;19.70;42.00;;;;;;5012562;28;20020;-63
2022/11/07 03:01:39;;;;;;;;;;;19.70;42.10;;;;;;4992180;28;20017;-63
2022/11/07 03:04:06;;;;;;;;;;;19.60;42.00;;;;;;4999426;28;19980;-63
2022/11/07 03:06:32;;;;;;;;;;;19.60;42.00;;;;;;4973612;28;19926;-63
2022/11/07 03:09:03;;;;;;;;;;;19.60;42.00;;;;;;4974478;28;20423;-63
2022/11/07 03:11:30;;;;;;;;;;;19.60;42.00;;;;;;4990867;28;19930;-63
2022/11/07 03:13:56;;;;;;;;;;;19.70;42.10;;;;;;4991660;28;19926;-63
2022/11/07 03:16:27;;;;;;;;;;;19.60;42.00;;;;;;4976702;28;19933;-63
2022/11/07 03:18:54;;;;;;;;;;;19.70;42.20;;;;;;4983591;28;20020;-63
2022/11/07 03:21:21;;;;;;;;;;;19.60;42.10;;;;;;4972157;28;19981;-63
2022/11/07 03:23:48;;;;;;;;;;;19.60;42.10;;;;;;4992569;28;19932;-63
2022/11/07 03:26:16;;;;;;;;;;;19.70;42.20;;;;;;4990947;28;19976;-63
2022/11/07 03:28:43;;;;;;;;;;;19.70;42.20;;;;;;5002208;28;19930;-63
2022/11/07 03:31:09;;;;;;;;;;;19.70;42.20;;;;;;4963660;28;20505;-63
2022/11/07 03:33:37;;;;;;;;;;;19.70;42.20;;;;;;4991508;28;19925;-63
2022/11/07 03:36:04;;;;;;;;;;;19.70;42.20;;;;;;4971680;28;20020;-63
2022/11/07 03:38:31;;;;;;;;;;;19.70;42.20;;;;;;4991414;28;19936;-63
2022/11/07 03:40:58;;;;;;;;;;;19.70;42.20;;;;;;4995436;28;20640;-63
2022/11/07 03:43:24;;;;;;;;;;;19.70;42.20;;;;;;4992994;28;19926;-63
2022/11/07 03:45:51;;;;;;;;;;;19.70;42.20;;;;;;4977025;28;19969;-63
2022/11/07 03:48:19;;;;;;;;;;;19.70;42.20;;;;;;4970996;28;20021;-63
2022/11/07 03:50:48;;;;;;;;;;;19.70;42.20;;;;;;4972510;28;20060;-63
2022/11/07 03:53:14;;;;;;;;;;;19.70;42.20;;;;;;4982111;28;19932;-63
2022/11/07 03:55:41;;;;;;;;;;;19.70;42.20;;;;;;4991875;28;20419;-63
2022/11/07 03:58:08;;;;;;;;;;;19.70;42.20;;;;;;4985558;28;19969;-63
2022/11/07 04:00:35;;;;;;;;;;;19.70;42.20;;;;;;4973726;28;19981;-63
2022/11/07 04:03:03;;;;;;;;;;;19.70;42.20;;;;;;4997184;28;19961;-63
2022/11/07 04:05:30;;;;;;;;;;;19.60;42.20;;;;;;4974744;28;19934;-63
2022/11/07 04:07:58;;;;;;;;;;;19.60;42.20;;;;;;4986548;28;19961;-63
2022/11/07 04:10:25;;;;;;;;;;;19.70;42.30;;;;;;4991501;28;20310;-63
2022/11/07 04:18:21;;;;;;;;;;;19.70;42.30;;;;;;4977673;28;19932;-63
2022/11/07 04:20:48;;;;;;;;;;;19.70;42.20;;;;;;4995033;28;19961;-63
2022/11/07 04:23:16;;;;;;;;;;;19.70;42.30;;;;;;4989443;28;19972;-63
2022/11/07 04:28:27;;;;;;;;;;;19.70;42.30;;;;;;4977437;28;19933;-63
2022/11/07 04:30:54;;;;;;;;;;;19.70;42.30;;;;;;4995115;28;19953;-63
2022/11/07 04:33:20;;;;;;;;;;;19.70;42.30;;;;;;4978007;28;20016;-63
2022/11/07 04:35:47;;;;;;;;;;;19.70;42.30;;;;;;4985185;28;19929;-63
2022/11/07 04:38:14;;;;;;;;;;;19.70;42.20;;;;;;4990065;28;19930;-63
2022/11/07 04:40:42;;;;;;;;;;;19.70;42.20;;;;;;4993718;28;19963;-63
2022/11/07 04:43:09;;;;;;;;;;;19.70;42.20;;;;;;4988988;28;20026;-63
2022/11/07 04:45:36;;;;;;;;;;;19.70;42.90;;;;;;4967550;28;20008;-63
2022/11/07 04:48:03;;;;;;;;;;;19.70;42.30;;;;;;4984024;28;19932;-63
2022/11/07 04:50:29;;;;;;;;;;;19.70;42.30;;;;;;4998191;28;19965;-63
2022/11/07 04:52:56;;;;;;;;;;;19.70;42.30;;;;;;5014426;28;19953;-63
2022/11/07 04:55:23;;;;;;;;;;;19.70;42.30;;;;;;4980038;28;19926;-63
2022/11/07 04:57:52;;;;;;;;;;;19.70;42.30;;;;;;4990147;28;20025;-63
2022/11/07 05:00:19;;;;;;;;;;;19.70;42.40;;;;;;4960798;28;19938;-63
2022/11/07 05:02:45;;;;;;;;;;;19.70;42.40;;;;;;4982640;28;19925;-63
2022/11/07 05:05:12;;;;;;;;;;;19.70;42.40;;;;;;4981862;28;19961;-63
2022/11/07 05:07:39;;;;;;;;;;;19.70;42.40;;;;;;4991111;28;19980;-63
2022/11/07 05:10:06;;;;;;;;;;;19.70;42.40;;;;;;4993434;28;19926;-63
2022/11/07 05:12:32;;;;;;;;;;;19.70;42.40;;;;;;4990177;28;19926;-63
2022/11/07 05:15:01;;;;;;;;;;;19.70;42.40;;;;;;4988119;28;19957;-63
2022/11/07 05:17:32;;;;;;;;;;;19.70;42.40;;;;;;4975891;28;19977;-63
2022/11/07 05:19:59;;;;;;;;;;;19.70;42.40;;;;;;4976082;28;19968;-63
2022/11/07 05:25:10;;;;;;;;;;;19.70;42.50;;;;;;4978266;28;19932;-63
2022/11/07 05:27:36;;;;;;;;;;;19.70;42.50;;;;;;4960681;28;19965;-63
2022/11/07 05:30:05;;;;;;;;;;;19.70;42.50;;;;;;4991173;28;19965;-62
2022/11/07 05:32:36;;;;;;;;;;;19.70;42.50;;;;;;4976230;28;19936;-63
2022/11/07 05:35:03;;;;;;;;;;;19.70;42.50;;;;;;4975974;28;19926;-63
2022/11/07 05:37:30;;;;;;;;;;;19.70;42.40;;;;;;4993765;28;19980;-63
2022/11/07 05:39:57;;;;;;;;;;;19.70;42.50;;;;;;4975486;28;19926;-63
2022/11/07 05:42:23;;;;;;;;;;;19.70;42.50;;;;;;4973963;28;20443;-63
2022/11/07 05:44:50;;;;;;;;;;;19.70;42.60;;;;;;4988889;28;19926;-63
2022/11/07 05:47:18;;;;;;;;;;;19.70;42.60;;;;;;4965667;28;20387;-63
2022/11/07 05:49:45;;;;;;;;;;;19.70;42.60;;;;;;4975990;28;20005;-63
2022/11/07 05:52:12;;;;;;;;;;;19.70;42.50;;;;;;4993926;28;19999;-63
2022/11/07 05:54:38;;;;;;;;;;;19.70;42.50;;;;;;4975299;28;19932;-63
2022/11/07 05:57:05;;;;;;;;;;;19.70;42.60;;;;;;4975328;28;19964;-63
2022/11/07 05:59:32;;;;;;;;;;;19.70;42.60;;;;;;4995371;28;19933;-63
2022/11/07 06:01:58;;;;;;;;;;;19.70;42.60;;;;;;4991091;28;19964;-63
2022/11/07 06:04:27;;;;;;;;;;;19.70;42.60;;;;;;4977326;28;20308;-63
2022/11/07 06:06:53;;;;;;;;;;;19.70;42.60;;;;;;4975013;28;19925;-63
2022/11/07 06:09:20;;;;;;;;;;;19.70;42.60;;;;;;4982895;28;20014;-64
2022/11/07 06:11:47;;;;;;;;;;;19.70;43.20;;;;;;4974801;28;19930;-64
2022/11/07 06:14:13;;;;;;;;;;;19.70;42.60;;;;;;4988897;28;19933;-63
2022/11/07 06:16:40;;;;;;;;;;;19.70;42.60;;;;;;4972260;28;20020;-63
2022/11/07 06:19:07;;;;;;;;;;;19.70;42.60;;;;;;4997705;28;20028;-63
2022/11/07 06:21:35;;;;;;;;;;;19.70;42.70;;;;;;4975283;28;20393;-64
2022/11/07 06:24:02;;;;;;;;;;;19.70;42.70;;;;;;4974808;28;19926;-64
2022/11/07 06:26:29;;;;;;;;;;;19.70;42.80;;;;;;4987026;28;19926;-64
2022/11/07 06:28:55;;;;;;;;;;;19.70;42.80;;;;;;4971738;28;19926;-64
2022/11/07 06:31:22;;;;;;;;;;;19.70;42.80;;;;;;4986052;28;19925;-64
2022/11/07 06:33:49;;;;;;;;;;;19.70;42.80;;;;;;4991935;28;20060;-64
2022/11/07 06:36:16;;;;;;;;;;;19.70;42.80;;;;;;4992162;28;19994;-64
2022/11/07 06:38:44;;;;;;;;;;;19.70;42.80;;;;;;4991852;28;19957;-65
2022/11/07 06:41:12;;;;;;;;;;;19.70;42.80;;;;;;4993226;28;20012;-64
2022/11/07 06:43:38;;;;;;;;;;;19.70;42.80;;;;;;4970277;28;20037;-65
2022/11/07 06:46:05;;;;;;;;;;;19.70;42.80;;;;;;4974859;28;20364;-65
2022/11/07 06:48:32;;;;;;;;;;;19.70;42.80;;;;;;4996843;28;20466;-64
2022/11/07 06:50:59;;;;;;;;;;;19.70;42.80;;;;;;4976961;28;19930;-63
2022/11/07 06:53:26;;;;;;;;;;;19.70;42.80;;;;;;4990630;28;19940;-63
2022/11/07 06:55:54;;;;;;;;;;;19.70;42.80;;;;;;4976160;28;20372;-63
2022/11/07 06:58:21;;;;;;;;;;;19.70;42.80;;;;;;4976709;28;19972;-64
2022/11/07 07:00:47;;;;;;;;;;;19.70;42.80;;;;;;4990550;28;19960;-64
2022/11/07 07:03:14;;;;;;;;;;;19.70;42.80;;;;;;4974497;28;19953;-64
2022/11/07 07:05:41;;;;;;;;;;;19.70;42.80;;;;;;4990357;28;19926;-64
2022/11/07 07:08:08;;;;;;;;;;;19.70;42.90;;;;;;4980664;28;20015;-63
2022/11/07 07:10:35;;;;;;;;;;;19.70;42.80;;;;;;4990873;28;19925;-63
2022/11/07 07:13:03;;;;;;;;;;;19.70;42.90;;;;;;4992463;28;19980;-63
2022/11/07 07:15:31;;;;;;;;;;;19.70;42.90;;;;;;4987206;28;19925;-63
2022/11/07 07:17:58;;;;;;;;;;;19.70;42.80;;;;;;4990980;28;19926;-63
2022/11/07 07:20:25;;;;;;;;;;;19.70;42.80;;;;;;4982516;28;19968;-63
2022/11/07 07:22:52;;;;;;;;;;;19.70;42.90;;;;;;4990596;28;20331;-63
2022/11/07 07:25:19;;;;;;;;;;;19.70;42.90;;;;;;4973940;28;19980;-63
2022/11/07 07:27:45;;;;;;;;;;;19.70;42.90;;;;;;4981034;28;20024;-64
2022/11/07 07:30:14;;;;;;;;;;;19.70;42.90;;;;;;4969517;28;20314;-64
2022/11/07 07:32:40;;;;;;;;;;;19.70;42.90;;;;;;4980182;28;19929;-63
2022/11/07 07:35:08;;;;;;;;;;;19.70;42.90;;;;;;4975751;28;19925;-63
2022/11/07 07:37:34;;;;;;;;;;;19.70;42.90;;;;;;4976568;28;19925;-63
2022/11/07 07:40:01;;;;;;;;;;;19.70;42.90;;;;;;4991932;28;19973;-64
2022/11/07 07:42:28;;;;;;;;;;;19.70;43.00;;;;;;4977626;28;19933;-64
2022/11/07 07:44:54;;;;;;;;;;;19.70;42.90;;;;;;4986852;28;19933;-63
2022/11/07 07:47:22;;;;;;;;;;;19.70;42.90;;;;;;4975798;28;20441;-64
2022/11/07 07:49:49;;;;;;;;;;;19.70;42.90;;;;;;4983885;28;19926;-64
2022/11/07 07:52:16;;;;;;;;;;;19.70;42.90;;;;;;4984930;28;19926;-64
2022/11/07 07:54:43;;;;;;;;;;;19.70;42.90;;;;;;4975649;28;20316;-64
2022/11/07 07:57:10;;;;;;;;;;;19.70;42.90;;;;;;4991698;28;19933;-64
2022/11/07 07:59:37;;;;;;;;;;;19.70;42.90;;;;;;4962407;28;20307;-64
2022/11/07 08:02:04;;;;;;;;;;;19.70;42.80;;;;;;4968761;28;19926;-63
2022/11/07 08:04:32;;;;;;;;;;;19.70;42.80;;;;;;4963154;28;19926;-63
2022/11/07 08:06:58;;;;;;;;;;;19.70;42.90;;;;;;4977492;28;19977;-64
2022/11/07 08:09:25;;;;;;;;;;;19.70;42.80;;;;;;4978455;28;19973;-64
2022/11/07 08:11:52;;;;;;;;;;;19.70;42.80;;;;;;4978895;28;19981;-63
2022/11/07 08:14:18;;;;;;;;;;;19.70;42.90;;;;;;4981842;28;19952;-64
2022/11/07 08:16:45;;;;;;;;;;;19.70;42.90;;;;;;4983672;28;20087;-64
2022/11/07 08:19:12;;;;;;;;;;;19.70;42.90;;;;;;4965798;28;19926;-63
2022/11/07 08:21:40;;;;;;;;;;;19.70;42.90;;;;;;4971314;28;19988;-63
2022/11/07 08:24:07;;;;;;;;;;;19.80;42.90;;;;;;4965761;28;19969;-63
2022/11/07 08:26:34;;;;;;;;;;;19.70;42.90;;;;;;4981283;28;20283;-64
2022/11/07 08:29:01;;;;;;;;;;;19.70;42.90;;;;;;4981587;28;20009;-64
2022/11/07 08:31:27;;;;;;;;;;;19.80;43.00;;;;;;4993971;28;19992;-64
2022/11/07 08:33:56;;;;;;;;;;;19.80;43.00;;;;;;4976290;28;19925;-64
2022/11/07 08:36:23;;;;;;;;;;;19.80;43.00;;;;;;4977027;28;19925;-64
2022/11/07 08:38:51;;;;;;;;;;;19.80;43.10;;;;;;4995766;28;19933;-64
2022/11/07 08:41:18;;;;;;;;;;;19.80;43.00;;;;;;4977046;28;19973;-64
2022/11/07 08:43:44;;;;;;;;;;;19.80;43.00;;;;;;4967034;28;20346;-64
2022/11/07 08:46:11;;;;;;;;;;;19.70;43.00;;;;;;4991843;28;19933;-63
2022/11/07 08:48:39;;;;;;;;;;;19.80;43.10;;;;;;4970092;28;19930;-63
2022/11/07 08:51:06;;;;;;;;;;;19.80;43.10;;;;;;4976722;28;19934;-63
2022/11/07 08:53:32;;;;;;;;;;;19.80;43.10;;;;;;4986289;28;19969;-63
2022/11/07 08:56:04;;;;;;;;;;;19.80;43.10;;;;;;4975300;28;19930;-64
2022/11/07 08:58:31;;;;;;;;;;;19.80;43.10;;;;;;4988259;28;19925;-64
2022/11/07 09:00:57;;;;;;;;;;;19.80;43.10;;;;;;4977817;28;19973;-63
2022/11/07 09:03:24;;;;;;;;;;;19.80;43.20;;;;;;4976626;28;20188;-63
2022/11/07 09:05:51;;;;;;;;;;;19.80;43.20;;;;;;4984824;28;19976;-63
2022/11/07 09:08:18;;;;;;;;;;;19.80;43.30;;;;;;4973332;28;20147;-64
2022/11/07 09:10:44;;;;;;;;;;;19.80;43.20;;;;;;4991250;28;19926;-63
2022/11/07 09:13:13;;;;;;;;;;;19.80;43.30;;;;;;4991040;28;19936;-63
2022/11/07 09:15:40;;;;;;;;;;;19.80;43.30;;;;;;4990321;28;19929;-63
2022/11/07 09:18:06;;;;;;;;;;;19.80;43.40;;;;;;4975205;28;20277;-63
2022/11/07 09:20:33;;;;;;;;;;;19.80;43.40;;;;;;4978408;28;20052;-63
2022/11/07 09:23:00;;;;;;;;;;;19.80;43.40;;;;;;4988312;28;20399;-63
2022/11/07 09:25:26;;;;;;;;;;;19.80;43.50;;;;;;4968328;28;19980;-64
2022/11/07 09:27:54;;;;;;;;;;;19.80;44.10;;;;;;4973793;28;19926;-65
2022/11/07 09:30:22;;;;;;;;;;;19.80;43.50;;;;;;4987747;28;20303;-64
2022/11/07 09:32:49;;;;;;;;;;;19.80;43.50;;;;;;4989897;28;19929;-65
2022/11/07 09:35:15;;;;;;;;;;;19.90;43.70;;;;;;4966176;28;20016;-65
2022/11/07 09:37:42;;;;;;;;;;;19.90;43.70;;;;;;4978865;28;19934;-63
2022/11/07 09:40:13;;;;;;;;;;;19.90;43.80;;;;;;4993547;28;19926;-63
2022/11/07 09:42:42;;;;;;;;;;;19.90;43.80;;;;;;4991766;28;19926;-64
2022/11/07 09:45:09;;;;;;;;;;;19.90;43.80;;;;;;4996186;28;20009;-64
2022/11/07 09:47:37;;;;;;;;;;;19.90;43.80;;;;;;4986326;28;19965;-64
2022/11/07 09:50:05;;;;;;;;;;;19.90;43.80;;;;;;4974377;28;19985;-64
2022/11/07 09:52:37;;;;;;;;;;;19.90;43.80;;;;;;4974049;28;19950;-63
2022/11/07 09:55:06;;;;;;;;;;;19.90;44.50;;;;;;4987695;28;19969;-63
2022/11/07 09:57:33;;;;;;;;;;;19.90;43.90;;;;;;4987969;28;20360;-64
2022/11/07 10:00:00;;;;;;;;;;;19.90;44.00;;;;;;4992030;28;19969;-64
2022/11/07 10:02:27;;;;;;;;;;;19.90;44.00;;;;;;4991944;28;19934;-65
2022/11/07 10:04:56;;;;;;;;;;;19.90;44.00;;;;;;4989677;28;19992;-64
2022/11/07 10:07:25;;;;;;;;;;;19.90;44.00;;;;;;4981829;28;19980;-65
2022/11/07 10:09:54;;;;;;;;;;;19.90;44.10;;;;;;4980948;28;20035;-64
2022/11/07 10:12:24;;;;;;;;;;;19.90;44.10;;;;;;4971834;28;19969;-64
2022/11/07 10:14:53;;;;;;;;;;;19.90;44.20;;;;;;4973921;28;20008;-64
2022/11/07 10:17:21;;;;;;;;;;;19.90;44.20;;;;;;4971602;28;19980;-64
2022/11/07 10:20:00;;;;;;;;;;;20.00;44.30;;;;;;4990608;28;19941;-65
2022/11/07 10:22:34;;;;;;;;;;;19.90;44.20;;;;;;4985193;28;19953;-65
2022/11/07 10:25:05;;;;;;;;;;;19.90;44.20;;;;;;4985194;28;19930;-64
2022/11/07 10:27:31;;;;;;;;;;;19.90;44.20;;;;;;4971048;28;19933;-64
2022/11/07 10:29:58;;;;;;;;;;;19.90;44.10;;;;;;4995292;28;20024;-64
2022/11/07 10:32:26;;;;;;;;;;;19.90;44.10;;;;;;4963113;28;19930;-64
2022/11/07 10:34:54;;;;;;;;;;;19.90;44.10;;;;;;4971949;28;20013;-64
2022/11/07 10:37:23;;;;;;;;;;;19.90;44.00;;;;;;4975480;28;19926;-65
2022/11/07 10:39:49;;;;;;;;;;;19.90;44.10;;;;;;4990517;28;19925;-65
2022/11/07 10:42:17;;;;;;;;;;;19.90;44.10;;;;;;4992053;28;19980;-63
2022/11/07 10:44:44;;;;;;;;;;;19.90;44.10;;;;;;4973202;28;19988;-64
2022/11/07 10:47:16;;;;;;;;;;;19.90;44.20;;;;;;4987727;28;19926;-65
2022/11/07 10:49:52;;;;;;;;;;;19.90;44.20;;;;;;4974699;28;20292;-65
2022/11/07 10:52:19;;;;;;;;;;;19.90;44.20;;;;;;4989434;28;19934;-64
2022/11/07 10:54:47;;;;;;;;;;;19.90;44.20;;;;;;4974387;28;20019;-64
2022/11/07 10:57:15;;;;;;;;;;;19.90;44.30;;;;;;4976570;28;19926;-64
2022/11/07 10:59:44;;;;;;;;;;;19.90;44.30;;;;;;4971173;28;19929;-64
2022/11/07 11:02:17;;;;;;;;;;;19.90;44.30;;;;;;4991252;28;19933;-64
2022/11/07 11:04:47;;;;;;;;;;;20.00;44.40;;;;;;4986073;28;19926;-64
2022/11/07 11:07:13;;;;;;;;;;;20.00;44.50;;;;;;4974304;28;20339;-64
2022/11/07 11:09:50;;;;;;;;;;;20.00;44.50;;;;;;4974330;28;19926;-64
2022/11/07 11:12:16;;;;;;;;;;;20.00;44.50;;;;;;4992692;28;19965;-64
2022/11/07 11:14:43;;;;;;;;;;;20.00;44.50;;;;;;4976820;28;19933;-64
2022/11/07 11:17:15;;;;;;;;;;;20.00;44.50;;;;;;5001833;28;19982;-64
2022/11/07 11:19:48;;;;;;;;;;;20.00;44.50;;;;;;4974551;28;19984;-64
2022/11/07 11:22:15;;;;;;;;;;;20.00;44.60;;;;;;4974015;28;19930;-65
2022/11/07 11:24:42;;;;;;;;;;;20.00;44.60;;;;;;4975782;28;19926;-65
2022/11/07 11:27:14;;;;;;;;;;;20.00;44.60;;;;;;4991630;28;19992;-64
2022/11/07 11:29:42;;;;;;;;;;;20.00;44.60;;;;;;4990064;28;20007;-64
2022/11/07 11:32:17;;;;;;;;;;;20.00;44.60;;;;;;4986544;28;20383;-64
2022/11/07 11:34:45;;;;;;;;;;;20.00;44.70;;;;;;4994620;28;19997;-64
2022/11/07 11:37:14;;;;;;;;;;;20.00;44.70;;;;;;4989741;28;19926;-64
2022/11/07 11:39:41;;;;;;;;;;;20.00;44.70;;;;;;4979821;28;20016;-64
2022/11/07 11:42:09;;;;;;;;;;;20.00;44.70;;;;;;4977754;28;19965;-65
2022/11/07 11:44:38;;;;;;;;;;;20.00;44.70;;;;;;4959996;28;19973;-64
2022/11/07 11:47:07;;;;;;;;;;;20.00;44.70;;;;;;4991193;28;19938;-65
2022/11/07 11:49:35;;;;;;;;;;;20.00;44.70;;;;;;4973395;28;19926;-64
2022/11/07 11:52:03;;;;;;;;;;;20.00;44.70;;;;;;4982559;28;20016;-64
2022/11/07 11:54:30;;;;;;;;;;;20.00;44.70;;;;;;4981335;28;19934;-64
2022/11/07 11:56:56;;;;;;;;;;;20.00;44.80;;;;;;4990250;28;20360;-64
2022/11/07 11:59:27;;;;;;;;;;;20.00;44.90;;;;;;4973327;28;19981;-64
2022/11/07 12:01:56;;;;;;;;;;;20.00;44.90;;;;;;4974595;28;20508;-63
2022/11/07 12:04:32;;;;;;;;;;;20.00;45.00;;;;;;4972649;28;19936;-64
2022/11/07 12:07:00;;;;;;;;;;;20.00;45.00;;;;;;4987790;28;19961;-65
2022/11/07 12:09:30;;;;;;;;;;;20.00;45.10;;;;;;4983320;28;19945;-64
2022/11/07 12:12:00;;;;;;;;;;;20.00;45.70;;;;;;4981982;28;19961;-64
2022/11/07 12:14:31;;;;;;;;;;;20.00;45.20;;;;;;4975162;28;19930;-64
2022/11/07 12:17:00;;;;;;;;;;;20.00;45.30;;;;;;4989484;28;19926;-64
2022/11/07 12:19:29;;;;;;;;;;;20.00;45.40;;;;;;4971926;28;20028;-64
2022/11/07 12:21:59;;;;;;;;;;;20.00;45.60;;;;;;4980646;28;19973;-63
2022/11/07 12:24:28;;;;;;;;;;;20.10;45.80;;;;;;4969707;28;19925;-64
2022/11/07 12:26:56;;;;;;;;;;;20.10;45.90;;;;;;4982302;28;20001;-64
2022/11/07 12:29:24;;;;;;;;;;;20.10;46.00;;;;;;4972271;28;19972;-64
2022/11/07 12:31:57;;;;;;;;;;;20.10;46.10;;;;;;4974128;28;20028;-63
2022/11/07 12:34:29;;;;;;;;;;;20.10;46.20;;;;;;4987241;28;20234;-64
2022/11/07 12:37:00;;;;;;;;;;;20.10;46.20;;;;;;4987080;28;19926;-64
2022/11/07 12:39:33;;;;;;;;;;;20.10;46.30;;;;;;4969657;28;19997;-64
2022/11/07 12:42:03;;;;;;;;;;;20.10;46.30;;;;;;4973691;28;19961;-64
2022/11/07 12:44:45;;;;;;;;;;;20.10;46.40;;;;;;4967283;28;20472;-64
2022/11/07 12:47:14;;;;;;;;;;;20.10;46.40;;;;;;4987264;28;19926;-64
2022/11/07 12:50:01;;;;;;;;;;;20.10;46.40;;;;;;4988068;28;20017;-64
2022/11/07 12:52:38;;;;;;;;;;;20.10;46.40;;;;;;4970263;28;20342;-64
2022/11/07 12:55:05;;;;;;;;;;;20.10;46.40;;;;;;4972057;28;19932;-64
2022/11/07 12:57:32;;;;;;;;;;;20.10;46.40;;;;;;4991730;28;19972;-65
2022/11/07 13:00:07;;;;;;;;;;;20.10;46.40;;;;;;4990354;28;19958;-65
2022/11/07 13:02:37;;;;;;;;;;;20.10;46.40;;;;;;4994453;28;20355;-63
2022/11/07 13:05:06;;;;;;;;;;;20.10;46.40;;;;;;4990789;28;19985;-64
2022/11/07 13:07:33;;;;;;;;;;;20.10;46.40;;;;;;4975377;28;19926;-64
2022/11/07 13:10:04;;;;;;;;;;;20.10;46.50;;;;;;4979361;28;19932;-64
2022/11/07 13:12:31;;;;;;;;;;;20.10;46.50;;;;;;4993901;28;20188;-64
2022/11/07 13:14:58;;;;;;;;;;;20.10;46.50;;;;;;4997672;28;20348;-64
2022/11/07 13:17:26;;;;;;;;;;;20.10;46.50;;;;;;4977399;28;19933;-64
2022/11/07 13:19:59;;;;;;;;;;;20.10;46.50;;;;;;4993331;28;20001;-64
2022/11/07 13:22:31;;;;;;;;;;;20.10;46.50;;;;;;4991120;28;20012;-64
2022/11/07 13:25:07;;;;;;;;;;;20.10;46.50;;;;;;4993259;28;19933;-64
2022/11/07 13:27:34;;;;;;;;;;;20.10;46.50;;;;;;4991603;28;20521;-64
2022/11/07 13:30:09;;;;;;;;;;;20.10;46.50;;;;;;4973158;28;19936;-64
2022/11/07 13:32:37;;;;;;;;;;;20.20;46.60;;;;;;4989164;28;19926;-65
2022/11/07 13:35:06;;;;;;;;;;;20.10;46.50;;;;;;4975231;28;20060;-63
2022/11/07 13:37:34;;;;;;;;;;;20.10;46.50;;;;;;4986218;28;20376;-65
2022/11/07 13:40:03;;;;;;;;;;;20.10;46.50;;;;;;4976747;28;19934;-64
2022/11/07 13:42:32;;;;;;;;;;;20.10;46.50;;;;;;4971866;28;20108;-64
2022/11/07 13:45:01;;;;;;;;;;;20.10;46.40;;;;;;4985222;28;20431;-64
2022/11/07 13:47:31;;;;;;;;;;;20.10;46.40;;;;;;4977583;28;19973;-64
2022/11/07 13:50:00;;;;;;;;;;;20.10;46.40;;;;;;4987922;28;20020;-64
2022/11/07 13:52:29;;;;;;;;;;;20.10;46.30;;;;;;4979768;28;19926;-64
2022/11/07 13:54:57;;;;;;;;;;;20.10;46.30;;;;;;4975630;28;19926;-64
2022/11/07 13:57:25;;;;;;;;;;;20.10;46.30;;;;;;4986806;28;19981;-64
2022/11/07 13:59:53;;;;;;;;;;;20.10;46.30;;;;;;4969401;28;20017;-64
2022/11/07 14:02:20;;;;;;;;;;;20.10;46.30;;;;;;4993308;28;19961;-64
2022/11/07 14:04:51;;;;;;;;;;;20.10;46.30;;;;;;4990866;28;19933;-65
2022/11/07 14:07:17;;;;;;;;;;;20.10;46.30;;;;;;4978531;28;19976;-65
2022/11/07 14:09:44;;;;;;;;;;;20.10;46.30;;;;;;4986940;28;20071;-64
2022/11/07 14:12:13;;;;;;;;;;;20.10;46.20;;;;;;4991674;28;20113;-64
2022/11/07 14:14:39;;;;;;;;;;;20.10;46.20;;;;;;4973462;28;20008;-65
2022/11/07 14:17:11;;;;;;;;;;;20.10;46.20;;;;;;4993204;28;19926;-65
2022/11/07 14:19:37;;;;;;;;;;;20.10;46.30;;;;;;4993181;28;19969;-64
2022/11/07 14:22:05;;;;;;;;;;;20.10;46.30;;;;;;4984526;28;19997;-63
2022/11/07 14:24:32;;;;;;;;;;;20.10;46.30;;;;;;4992974;28;19995;-64
2022/11/07 14:26:59;;;;;;;;;;;20.10;46.30;;;;;;4990773;28;19926;-64
2022/11/07 14:29:26;;;;;;;;;;;20.10;46.20;;;;;;4989535;28;20006;-64
2022/11/07 14:31:52;;;;;;;;;;;20.10;46.20;;;;;;4991978;28;19987;-64
2022/11/07 14:34:21;;;;;;;;;;;20.10;46.20;;;;;;4992867;28;20036;-64